createdAt,value
2022-10-26T00:00:45.478Z,3.12
2022-10-26T00:03:48.447Z,2.45
2022-10-26T00:06:50.976Z,2.17
2022-10-26T00:09:53.676Z,2.40
2022-10-26T00:12:56.047Z,2.10
2022-10-26T00:19:06.538Z,2.80
2022-10-26T00:22:09.343Z,2.30
2022-10-26T00:25:11.839Z,2.92
2022-10-26T00:28:14.562Z,2.30
2022-10-26T00:31:17.511Z,2.28
2022-10-26T00:34:20.183Z,2.25
2022-10-26T00:37:22.790Z,2.42
2022-10-26T00:40:29.843Z,2.40
2022-10-26T00:43:32.251Z,2.10
2022-10-26T00:46:37.536Z,2.87
2022-10-26T00:49:40.318Z,2.90
2022-10-26T00:52:43.425Z,2.62
2022-10-26T00:55:48.646Z,3.08
2022-10-26T00:58:52.195Z,2.62
2022-10-26T01:01:54.723Z,3.20
2022-10-26T01:04:58.228Z,2.83
2022-10-26T01:08:01.807Z,3.05
2022-10-26T01:11:05.695Z,2.90
2022-10-26T01:14:11.583Z,2.28
2022-10-26T01:17:38.149Z,2.60
2022-10-26T01:21:09.833Z,3.17
2022-10-26T01:24:33.124Z,2.97
2022-10-26T01:27:47.319Z,3.20
2022-10-26T01:30:50.772Z,2.85
2022-10-26T01:34:01.542Z,3.50
2022-10-26T01:37:14.273Z,3.00
2022-10-26T01:40:23.550Z,2.75
2022-10-26T01:43:31.033Z,2.75
2022-10-26T01:46:44.129Z,3.30
2022-10-26T01:49:49.845Z,3.05
2022-10-26T01:52:52.289Z,3.33
2022-10-26T01:55:56.193Z,3.83
2022-10-26T01:59:22.968Z,3.45
2022-10-26T02:02:50.363Z,2.35
2022-10-26T02:06:22.807Z,2.60
2022-10-26T02:09:39.557Z,2.33
2022-10-26T02:12:46.480Z,3.05
2022-10-26T02:16:15.315Z,2.78
2022-10-26T02:19:39.463Z,4.07
2022-10-26T02:22:47.345Z,3.55
2022-10-26T02:25:56.951Z,3.67
2022-10-26T02:29:05.731Z,3.08
2022-10-26T02:35:13.854Z,2.92
2022-10-26T02:38:19.613Z,2.95
2022-10-26T02:41:25.995Z,2.87
2022-10-26T02:44:32.684Z,3.10
2022-10-26T02:47:35.541Z,2.62
2022-10-26T02:51:14.161Z,2.97
2022-10-26T02:54:48.747Z,3.22
2022-10-26T02:57:57.638Z,2.20
2022-10-26T03:01:00.538Z,3.60
2022-10-26T03:04:03.273Z,3.25
2022-10-26T03:07:05.986Z,2.42
2022-10-26T03:10:08.881Z,2.53
2022-10-26T03:13:12.852Z,2.60
2022-10-26T03:16:18.222Z,2.90
2022-10-26T03:19:21.581Z,2.42
2022-10-26T03:22:24.050Z,2.80
2022-10-26T03:25:27.253Z,2.30
2022-10-26T03:28:29.729Z,2.25
2022-10-26T03:31:32.427Z,2.62
2022-10-26T03:34:34.829Z,3.00
2022-10-26T03:37:37.480Z,3.25
2022-10-26T03:40:41.002Z,3.37
2022-10-26T03:43:43.699Z,2.87
2022-10-26T03:46:46.269Z,4.00
2022-10-26T03:49:49.069Z,3.22
2022-10-26T03:52:51.993Z,3.62
2022-10-26T03:55:54.876Z,3.55
2022-10-26T03:58:57.444Z,3.72
2022-10-26T04:02:00.186Z,3.03
2022-10-26T04:05:03.066Z,2.90
2022-10-26T04:08:05.652Z,3.37
2022-10-26T04:11:08.514Z,2.70
2022-10-26T04:14:10.921Z,3.65
2022-10-26T04:17:13.651Z,3.42
2022-10-26T04:20:16.187Z,3.78
2022-10-26T04:23:19.961Z,4.60
2022-10-26T04:26:22.434Z,3.72
2022-10-26T04:29:25.127Z,4.53
2022-10-26T04:32:27.527Z,3.85
2022-10-26T04:35:31.051Z,3.37
2022-10-26T04:38:33.528Z,3.95
2022-10-26T04:41:36.257Z,4.97
2022-10-26T04:44:38.632Z,4.20
2022-10-26T04:47:41.606Z,3.65
2022-10-26T04:50:44.164Z,3.70
2022-10-26T04:53:46.899Z,3.50
2022-10-26T04:56:49.351Z,3.72
2022-10-26T04:59:52.234Z,3.08
2022-10-26T05:03:02.534Z,2.70
2022-10-26T05:06:05.392Z,3.08
2022-10-26T05:09:07.936Z,3.58
2022-10-26T05:12:10.664Z,3.40
2022-10-26T05:15:15.129Z,3.60
2022-10-26T05:18:18.120Z,4.43
2022-10-26T05:21:20.626Z,4.90
2022-10-26T05:24:23.406Z,5.82
2022-10-26T05:27:25.920Z,5.18
2022-10-26T05:30:29.599Z,5.35
2022-10-26T05:33:32.015Z,6.20
2022-10-26T05:36:34.800Z,7.40
2022-10-26T05:39:37.187Z,6.40
2022-10-26T05:42:39.928Z,7.75
2022-10-26T05:45:42.425Z,6.72
2022-10-26T05:48:45.088Z,7.65
2022-10-26T05:51:47.524Z,7.00
2022-10-26T05:54:50.565Z,7.50
2022-10-26T05:57:53.624Z,7.28
2022-10-26T06:01:16.001Z,7.07
2022-10-26T06:04:24.744Z,6.30
2022-10-26T06:07:27.298Z,7.55
2022-10-26T06:10:30.329Z,6.90
2022-10-26T06:13:33.096Z,7.72
2022-10-26T06:16:46.582Z,7.35
2022-10-26T06:20:08.681Z,6.95
2022-10-26T06:23:38.948Z,8.25
2022-10-26T06:27:05.336Z,6.75
2022-10-26T06:30:11.764Z,7.07
2022-10-26T06:33:28.846Z,8.60
2022-10-26T06:36:33.568Z,7.78
2022-10-26T06:39:42.280Z,7.80
2022-10-26T06:42:45.351Z,6.82
2022-10-26T06:45:57.919Z,8.43
2022-10-26T06:49:10.800Z,7.03
2022-10-26T06:52:26.603Z,6.72
2022-10-26T06:55:37.473Z,7.87
2022-10-26T06:58:40.800Z,8.18
2022-10-26T07:01:43.664Z,8.02
2022-10-26T07:04:46.578Z,8.75
2022-10-26T07:07:49.540Z,7.30
2022-10-26T07:10:52.485Z,8.10
2022-10-26T07:13:55.286Z,10.35
2022-10-26T07:16:57.866Z,8.73
2022-10-26T07:20:00.748Z,7.78
2022-10-26T07:23:06.854Z,10.73
2022-10-26T07:26:09.559Z,11.05
2022-10-26T07:29:12.134Z,11.57
2022-10-26T07:32:16.293Z,11.38
2022-10-26T07:35:18.772Z,7.75
2022-10-26T07:38:21.737Z,11.27
2022-10-26T07:41:24.328Z,11.32
2022-10-26T07:44:26.999Z,10.93
2022-10-26T07:47:29.440Z,10.30
2022-10-26T07:50:32.181Z,9.73
2022-10-26T07:53:34.605Z,10.93
2022-10-26T07:56:37.382Z,13.05
2022-10-26T07:59:39.886Z,12.00
2022-10-26T08:02:42.692Z,12.20
2022-10-26T08:05:51.353Z,11.88
2022-10-26T08:08:53.884Z,12.43
2022-10-26T08:11:56.709Z,12.27
2022-10-26T08:14:59.136Z,11.68
2022-10-26T08:18:01.839Z,11.02
2022-10-26T08:21:11.214Z,11.70
2022-10-26T08:24:14.320Z,10.45
2022-10-26T08:27:17.014Z,10.65
2022-10-26T08:30:20.289Z,9.05
2022-10-26T08:33:23.988Z,10.25
2022-10-26T08:36:28.469Z,10.02
2022-10-26T08:39:31.032Z,10.40
2022-10-26T08:42:43.102Z,10.18
2022-10-26T08:46:20.028Z,10.02
2022-10-26T08:49:25.177Z,9.68
2022-10-26T08:52:43.904Z,9.95
2022-10-26T08:55:56.519Z,9.50
2022-10-26T08:59:01.723Z,9.65
2022-10-26T09:02:12.844Z,9.38
2022-10-26T09:05:17.835Z,8.70
2022-10-26T09:08:30.112Z,9.15
2022-10-26T09:11:47.954Z,9.15
2022-10-26T09:18:05.318Z,8.10
2022-10-26T09:21:31.176Z,8.82
2022-10-26T09:24:39.292Z,8.77
2022-10-26T09:27:47.535Z,10.00
2022-10-26T09:30:50.992Z,9.52
2022-10-26T09:33:55.474Z,9.65
2022-10-26T09:36:57.944Z,9.50
2022-10-26T09:40:18.918Z,9.60
2022-10-26T09:43:28.758Z,9.57
2022-10-26T09:46:37.653Z,9.50
2022-10-26T09:49:51.439Z,8.80
2022-10-26T09:52:54.477Z,8.80
2022-10-26T09:56:16.904Z,8.20
2022-10-26T09:59:23.481Z,8.57
2022-10-26T10:02:56.681Z,7.78
2022-10-26T10:06:20.000Z,7.32
2022-10-26T10:09:24.722Z,7.72
2022-10-26T10:12:27.414Z,6.87
2022-10-26T10:15:29.952Z,6.80
2022-10-26T10:18:33.883Z,6.95
2022-10-26T10:21:44.517Z,6.53
2022-10-26T10:24:55.709Z,6.18
2022-10-26T10:27:58.233Z,6.03
2022-10-26T10:31:18.025Z,6.07
2022-10-26T10:34:22.407Z,5.78
2022-10-26T10:37:46.955Z,5.95
2022-10-26T10:40:56.612Z,6.47
2022-10-26T10:44:27.544Z,7.97
2022-10-26T10:47:33.331Z,7.72
2022-10-26T10:50:36.584Z,8.00
2022-10-26T10:53:41.940Z,8.77
2022-10-26T10:56:49.812Z,8.30
2022-10-26T11:00:05.763Z,9.38
2022-10-26T11:03:24.843Z,9.05
2022-10-26T11:06:34.412Z,9.75
2022-10-26T11:09:41.708Z,9.50
2022-10-26T11:12:59.434Z,10.25
2022-10-26T11:16:06.328Z,9.30
2022-10-26T11:19:29.177Z,8.95
2022-10-26T11:22:40.586Z,10.63
2022-10-26T11:25:53.699Z,10.35
2022-10-26T11:29:05.888Z,9.70
2022-10-26T11:32:08.459Z,9.82
2022-10-26T11:35:24.677Z,10.13
2022-10-26T11:38:56.735Z,9.80
2022-10-26T11:42:28.200Z,10.40
2022-10-26T11:45:34.664Z,9.93
2022-10-26T11:48:50.887Z,10.77
2022-10-26T11:52:09.489Z,10.02
2022-10-26T11:55:12.480Z,9.82
2022-10-26T11:58:15.240Z,10.15
2022-10-26T12:01:18.509Z,10.20
2022-10-26T12:04:26.526Z,9.50
2022-10-26T12:07:40.841Z,10.02
2022-10-26T12:10:58.463Z,10.63
2022-10-26T12:14:19.526Z,11.05
2022-10-26T12:17:38.141Z,12.23
2022-10-26T12:20:46.589Z,11.90
2022-10-26T12:23:58.490Z,11.40
2022-10-26T12:27:06.415Z,11.70
2022-10-26T12:33:30.725Z,11.18
2022-10-26T12:36:54.964Z,11.90
2022-10-26T12:40:32.619Z,11.80
2022-10-26T12:47:01.070Z,11.90
2022-10-26T12:50:06.821Z,10.35
2022-10-26T12:53:15.751Z,11.60
2022-10-26T12:56:24.561Z,11.05
2022-10-26T12:59:59.574Z,11.43
2022-10-26T13:03:05.300Z,11.98
2022-10-26T13:06:23.045Z,11.05
2022-10-26T13:12:57.775Z,12.35
2022-10-26T13:16:02.506Z,11.60
2022-10-26T13:19:05.208Z,11.85
2022-10-26T13:22:24.603Z,11.27
2022-10-26T13:25:29.628Z,12.25
2022-10-26T13:28:38.257Z,10.88
2022-10-26T13:31:41.616Z,11.60
2022-10-26T13:34:44.782Z,11.85
2022-10-26T13:37:50.294Z,11.77
2022-10-26T13:41:04.341Z,11.70
2022-10-26T13:44:18.322Z,10.45
2022-10-26T13:47:43.661Z,10.55
2022-10-26T13:50:52.855Z,11.48
2022-10-26T13:54:00.219Z,10.77
2022-10-26T13:57:28.550Z,11.98
2022-10-26T14:00:31.437Z,11.75
2022-10-26T14:03:34.147Z,11.77
2022-10-26T14:06:39.630Z,10.38
2022-10-26T14:09:43.096Z,11.20
2022-10-26T14:12:45.602Z,11.93
2022-10-26T14:15:48.395Z,12.70
2022-10-26T14:18:51.027Z,11.98
2022-10-26T14:21:54.968Z,11.90
2022-10-26T14:24:59.800Z,11.43
2022-10-26T14:28:04.831Z,12.60
2022-10-26T14:31:20.576Z,11.98
2022-10-26T14:34:24.071Z,11.75
2022-10-26T14:37:37.497Z,11.52
2022-10-26T14:40:40.610Z,11.55
2022-10-26T14:43:44.702Z,11.43
2022-10-26T14:46:48.120Z,11.98
2022-10-26T14:49:50.831Z,11.07
2022-10-26T14:53:02.101Z,11.95
2022-10-26T14:56:06.417Z,11.02
2022-10-26T14:59:24.284Z,11.75
2022-10-26T15:02:26.876Z,11.77
2022-10-26T15:05:35.712Z,12.55
2022-10-26T15:08:55.821Z,12.23
2022-10-26T15:12:00.350Z,11.50
2022-10-26T15:18:33.303Z,11.68
2022-10-26T15:24:40.293Z,9.23
2022-10-26T15:27:42.832Z,9.00
2022-10-26T15:31:01.212Z,7.95
2022-10-26T15:34:03.792Z,7.68
2022-10-26T15:37:08.469Z,6.70
2022-10-26T15:40:11.991Z,6.97
2022-10-26T15:43:14.876Z,7.53
2022-10-26T15:46:17.954Z,6.95
2022-10-26T15:49:21.303Z,7.18
2022-10-26T15:52:23.822Z,7.78
2022-10-26T15:55:28.447Z,7.87
2022-10-26T15:58:32.091Z,10.07
2022-10-26T16:01:34.990Z,10.77
2022-10-26T16:04:38.647Z,11.12
2022-10-26T16:07:43.237Z,11.70
2022-10-26T16:10:47.168Z,10.85
2022-10-26T16:20:08.784Z,11.57
2022-10-26T16:23:12.172Z,11.45
2022-10-26T16:26:15.113Z,11.50
2022-10-26T16:29:18.083Z,11.15
2022-10-26T16:32:20.902Z,11.50
2022-10-26T16:35:23.808Z,11.02
2022-10-26T16:38:27.414Z,11.00
2022-10-26T16:41:32.037Z,12.05
2022-10-26T16:44:36.475Z,10.93
2022-10-26T16:47:40.195Z,11.43
2022-10-26T16:50:43.023Z,11.55
2022-10-26T16:53:51.228Z,12.13
2022-10-26T16:56:54.969Z,11.27
2022-10-26T16:59:58.371Z,11.00
2022-10-26T17:03:02.862Z,11.50
2022-10-26T17:06:07.692Z,12.48
2022-10-26T17:09:10.416Z,11.00
2022-10-26T17:12:16.945Z,11.43
2022-10-26T17:15:20.588Z,10.70
2022-10-26T17:18:25.001Z,11.18
2022-10-26T17:21:31.226Z,12.23
2022-10-26T17:24:36.242Z,11.95
2022-10-26T17:27:43.469Z,11.68
2022-10-26T17:30:49.474Z,11.10
2022-10-26T17:33:52.703Z,11.27
2022-10-26T17:36:55.739Z,11.25
2022-10-26T17:39:58.443Z,12.13
2022-10-26T17:43:01.468Z,11.65
2022-10-26T17:46:07.738Z,11.65
2022-10-26T17:49:11.806Z,11.07
2022-10-26T17:52:15.047Z,10.88
2022-10-26T17:55:19.157Z,11.93
2022-10-26T17:58:21.960Z,10.73
2022-10-26T18:01:26.338Z,9.80
2022-10-26T18:04:29.557Z,10.23
2022-10-26T18:07:32.705Z,10.85
2022-10-26T18:10:38.243Z,9.48
2022-10-26T18:13:42.280Z,9.73
2022-10-26T18:16:45.722Z,10.85
2022-10-26T18:19:48.451Z,9.90
2022-10-26T18:22:53.095Z,9.43
2022-10-26T18:26:14.076Z,10.18
2022-10-26T18:29:17.655Z,10.00
2022-10-26T18:32:20.340Z,8.55
2022-10-26T18:35:24.123Z,8.98
2022-10-26T18:38:27.034Z,9.55
2022-10-26T18:41:30.142Z,8.20
2022-10-26T18:44:33.118Z,8.07
2022-10-26T18:47:36.124Z,8.05
2022-10-26T18:50:38.873Z,8.23
2022-10-26T18:53:43.572Z,8.18
2022-10-26T18:56:47.560Z,8.45
2022-10-26T18:59:54.811Z,8.32
2022-10-26T19:02:58.531Z,8.50
2022-10-26T19:06:12.955Z,8.60
2022-10-26T19:09:17.364Z,8.35
2022-10-26T19:12:20.432Z,7.22
2022-10-26T19:15:24.227Z,7.40
2022-10-26T19:18:27.333Z,7.80
2022-10-26T19:21:32.135Z,7.60
2022-10-26T19:24:35.152Z,7.28
2022-10-26T19:27:37.938Z,8.32
2022-10-26T19:30:41.018Z,7.00
2022-10-26T19:33:43.930Z,6.90
2022-10-26T19:36:47.652Z,8.35
2022-10-26T19:39:50.491Z,8.73
2022-10-26T19:42:53.911Z,9.27
2022-10-26T19:45:58.700Z,6.87
2022-10-26T19:49:02.498Z,8.88
2022-10-26T19:52:05.514Z,8.65
2022-10-26T19:55:09.648Z,6.70
2022-10-26T19:58:13.516Z,8.88
2022-10-26T20:01:16.882Z,9.13
2022-10-26T20:04:20.073Z,7.57
2022-10-26T20:07:22.850Z,8.68
2022-10-26T20:10:25.907Z,6.30
2022-10-26T20:13:28.691Z,9.50
2022-10-26T20:16:32.646Z,9.75
2022-10-26T20:19:35.490Z,8.80
2022-10-26T20:22:38.726Z,8.02
2022-10-26T20:25:46.568Z,10.32
2022-10-26T20:28:52.673Z,10.65
2022-10-26T20:31:56.340Z,11.73
2022-10-26T20:34:59.363Z,8.10
2022-10-26T20:38:03.685Z,11.38
2022-10-26T20:41:12.005Z,11.88
2022-10-26T20:44:29.337Z,10.02
2022-10-26T20:47:32.617Z,9.57
2022-10-26T20:50:35.658Z,8.60
2022-10-26T20:53:48.238Z,11.77
2022-10-26T20:56:52.451Z,9.23
2022-10-26T21:00:03.995Z,8.50
2022-10-26T21:03:09.036Z,10.30
2022-10-26T21:06:12.195Z,12.07
2022-10-26T21:09:15.126Z,9.13
2022-10-26T21:12:17.950Z,11.82
2022-10-26T21:15:20.332Z,9.40
2022-10-26T21:18:23.425Z,9.63
2022-10-26T21:21:26.104Z,11.25
2022-10-26T21:24:28.798Z,9.48
2022-10-26T21:27:31.295Z,12.13
2022-10-26T21:30:34.231Z,12.02
2022-10-26T21:33:36.769Z,9.18
2022-10-26T21:36:39.513Z,11.40
2022-10-26T21:39:41.963Z,11.23
2022-10-26T21:42:49.899Z,12.23
2022-10-26T21:45:57.095Z,10.15
2022-10-26T21:48:59.938Z,11.32
2022-10-26T21:52:02.404Z,10.20
2022-10-26T21:55:05.612Z,12.27
2022-10-26T21:58:08.143Z,10.05
2022-10-26T22:01:22.131Z,9.55
2022-10-26T22:04:24.991Z,11.43
2022-10-26T22:07:27.552Z,9.25
2022-10-26T22:10:30.359Z,9.65
2022-10-26T22:13:32.884Z,12.45
2022-10-26T22:16:35.558Z,11.15
2022-10-26T22:19:38.081Z,8.13
2022-10-26T22:22:40.907Z,12.13
2022-10-26T22:25:43.399Z,12.10
2022-10-26T22:28:48.070Z,12.98
2022-10-26T22:31:50.821Z,9.80
2022-10-26T22:35:10.397Z,12.32
2022-10-26T22:38:16.000Z,11.70
2022-10-26T22:41:20.030Z,9.35
2022-10-26T22:44:22.430Z,12.85
2022-10-26T22:47:25.121Z,13.15
2022-10-26T22:50:27.547Z,13.13
2022-10-26T22:53:30.239Z,9.20
2022-10-26T22:56:34.403Z,8.65
2022-10-26T22:59:37.161Z,13.23
2022-10-26T23:02:39.564Z,10.10
2022-10-26T23:05:49.464Z,12.88
2022-10-26T23:08:51.958Z,8.93
2022-10-26T23:11:54.783Z,11.40
2022-10-26T23:14:57.185Z,11.48
2022-10-26T23:17:59.904Z,12.15
2022-10-26T23:21:03.481Z,11.77
2022-10-26T23:24:06.359Z,10.63
2022-10-26T23:27:08.772Z,8.57
2022-10-26T23:30:12.061Z,10.98
2022-10-26T23:33:14.662Z,12.50
2022-10-26T23:36:18.045Z,8.90
2022-10-26T23:39:20.577Z,10.13
2022-10-26T23:42:23.311Z,9.20
2022-10-26T23:45:25.886Z,8.98
2022-10-26T23:48:29.057Z,12.15
2022-10-26T23:51:31.758Z,10.57
2022-10-26T23:54:34.486Z,8.55
2022-10-26T23:57:39.231Z,8.32
